Terminal Aerodrome Forecast
Issued by NWS Wilmington, OH

Current Version | Previous Version | Text Only | Print | Product List | Glossary Off
Versions: 1 2 3 4 5 6 7 8 9 10 11 12 13 14 15 16 17

000
FTUS41 KILN 022346
TAFDAY
TAF
KDAY 022346Z 0300/0324 VRB03KT P6SM SCT090
     FM031400 30008KT P6SM SCT040
     FM031900 32008KT P6SM VCTS BKN035CB=

USA.gov is the U.S. government's official web portal to all federal, state and local government web resources and services.